createdAt,value
2019-05-09T00:02:03.665Z,4.70
2019-05-09T00:04:30.661Z,7.30
2019-05-09T00:06:57.659Z,6.90
2019-05-09T00:09:24.712Z,6.37
2019-05-09T00:11:53.084Z,6.07
2019-05-09T00:14:18.905Z,7.37
2019-05-09T00:16:45.958Z,7.73
2019-05-09T00:19:13.539Z,7.43
2019-05-09T00:21:43.693Z,6.43
2019-05-09T00:24:10.273Z,8.20
2019-05-09T00:26:37.323Z,8.00
2019-05-09T00:29:09.136Z,7.47
2019-05-09T00:31:56.471Z,8.20
2019-05-09T00:34:44.235Z,6.93
2019-05-09T00:37:13.559Z,7.67
2019-05-09T00:39:40.188Z,5.80
2019-05-09T00:42:07.186Z,5.83
2019-05-09T00:44:53.327Z,6.20
2019-05-09T00:47:23.990Z,5.70
2019-05-09T00:49:50.290Z,8.27
2019-05-09T00:52:17.294Z,4.93
2019-05-09T00:54:44.285Z,4.37
2019-05-09T00:57:13.636Z,4.80
2019-05-09T00:59:38.437Z,4.50
2019-05-09T01:02:05.432Z,4.70
2019-05-09T01:04:33.314Z,5.10
2019-05-09T01:06:59.650Z,4.77
2019-05-09T01:09:26.589Z,4.47
2019-05-09T01:11:55.371Z,3.90
2019-05-09T01:14:23.408Z,6.40
2019-05-09T01:16:49.426Z,5.00
2019-05-09T01:19:16.461Z,2.50
2019-05-09T01:21:43.941Z,6.20
2019-05-09T01:24:10.610Z,4.87
2019-05-09T01:26:37.663Z,4.60
2019-05-09T01:29:04.705Z,4.23
2019-05-09T01:31:33.236Z,4.23
2019-05-09T01:34:04.647Z,4.73
2019-05-09T01:36:51.350Z,3.93
2019-05-09T01:39:18.401Z,4.20
2019-05-09T01:41:45.344Z,4.10
2019-05-09T01:44:13.402Z,3.50
2019-05-09T01:46:39.447Z,4.10
2019-05-09T01:49:06.492Z,3.50
2019-05-09T01:51:34.767Z,3.70
2019-05-09T01:54:03.677Z,3.70
2019-05-09T01:56:28.821Z,3.67
2019-05-09T01:58:57.045Z,3.67
2019-05-09T02:01:24.287Z,4.53
2019-05-09T02:03:51.476Z,4.20
2019-05-09T02:06:19.670Z,4.33
2019-05-09T02:08:46.668Z,4.20
2019-05-09T02:11:13.722Z,5.57
2019-05-09T02:13:44.076Z,3.67
2019-05-09T02:16:23.429Z,4.43
2019-05-09T02:18:50.551Z,3.80
2019-05-09T02:21:17.478Z,4.37
2019-05-09T02:23:44.474Z,4.37
2019-05-09T02:26:13.462Z,4.93
2019-05-09T02:28:38.524Z,4.93
2019-05-09T02:31:06.079Z,4.43
2019-05-09T02:33:34.674Z,6.07
2019-05-09T02:36:01.990Z,5.47
2019-05-09T02:38:28.749Z,5.70
2019-05-09T02:40:54.993Z,5.37
2019-05-09T02:43:22.046Z,5.47
2019-05-09T02:46:01.848Z,5.23
2019-05-09T02:48:29.077Z,7.10
2019-05-09T02:51:14.344Z,5.90
2019-05-09T02:53:41.275Z,7.37
2019-05-09T02:56:09.153Z,7.57
2019-05-09T02:58:58.852Z,6.93
2019-05-09T03:01:38.933Z,7.73
2019-05-09T03:04:02.498Z,7.90
2019-05-09T03:06:29.447Z,8.30
2019-05-09T03:08:59.075Z,7.60
2019-05-09T03:11:23.570Z,9.10
2019-05-09T03:13:50.526Z,9.10
2019-05-09T03:16:19.049Z,6.90
2019-05-09T03:18:49.109Z,7.13
2019-05-09T03:21:19.321Z,8.77
2019-05-09T03:23:48.678Z,6.00
2019-05-09T03:26:13.161Z,6.37
2019-05-09T03:28:48.974Z,6.60
2019-05-09T03:31:12.972Z,6.73
2019-05-09T03:33:40.856Z,9.03
2019-05-09T03:36:08.404Z,7.33
2019-05-09T03:38:37.606Z,6.30
2019-05-09T03:41:02.605Z,4.87
2019-05-09T03:43:30.566Z,6.10
2019-05-09T03:46:13.110Z,6.50
2019-05-09T03:48:42.786Z,4.97
2019-05-09T03:51:09.937Z,5.77
2019-05-09T03:53:37.987Z,5.43
2019-05-09T03:56:03.983Z,5.13
2019-05-09T03:58:30.983Z,6.13
2019-05-09T04:00:58.710Z,6.10
2019-05-09T04:03:27.494Z,5.93
2019-05-09T04:05:59.014Z,7.50
2019-05-09T04:08:21.428Z,5.80
2019-05-09T04:10:50.290Z,6.40
2019-05-09T04:13:17.869Z,5.20
2019-05-09T04:15:43.706Z,5.43
2019-05-09T04:18:10.618Z,8.03
2019-05-09T04:20:37.808Z,12.93
2019-05-09T04:23:04.795Z,8.30
2019-05-09T04:25:31.852Z,10.07
2019-05-09T04:27:58.847Z,15.20
2019-05-09T04:30:27.436Z,6.27
2019-05-09T04:32:53.040Z,5.13
2019-05-09T04:35:20.090Z,11.30
2019-05-09T04:37:48.203Z,12.73
2019-05-09T04:40:14.293Z,6.03
2019-05-09T04:42:44.455Z,5.20
2019-05-09T04:45:18.302Z,5.07
2019-05-09T04:47:47.083Z,4.23
2019-05-09T04:50:15.441Z,4.47
2019-05-09T04:52:40.017Z,13.70
2019-05-09T04:55:07.852Z,34.90
2019-05-09T04:57:34.037Z,18.30
2019-05-09T05:00:00.970Z,5.50
2019-05-09T05:02:28.068Z,4.80
2019-05-09T05:04:55.070Z,4.83
2019-05-09T05:07:22.170Z,4.27
2019-05-09T05:09:49.074Z,6.03
2019-05-09T05:12:18.549Z,5.57
2019-05-09T05:14:44.643Z,4.70
2019-05-09T05:17:11.732Z,6.40
2019-05-09T05:19:38.970Z,6.40
2019-05-09T05:22:07.523Z,6.40
2019-05-09T05:24:34.507Z,5.97
2019-05-09T05:27:01.913Z,5.10
2019-05-09T05:29:29.261Z,5.13
2019-05-09T05:31:58.110Z,5.00
2019-05-09T05:34:38.872Z,4.20
2019-05-09T05:37:07.563Z,4.77
2019-05-09T05:39:34.139Z,6.10
2019-05-09T05:42:01.073Z,5.03
2019-05-09T05:44:29.808Z,5.77
2019-05-09T05:46:58.684Z,5.23
2019-05-09T05:49:27.820Z,5.20
2019-05-09T05:51:52.699Z,6.60
2019-05-09T05:54:19.653Z,4.90
2019-05-09T05:56:47.470Z,4.93
2019-05-09T05:59:13.649Z,4.30
2019-05-09T06:01:40.689Z,3.90
2019-05-09T06:04:07.730Z,2.33
2019-05-09T06:06:34.654Z,3.90
2019-05-09T06:09:01.681Z,5.40
2019-05-09T06:11:28.677Z,4.07
2019-05-09T06:14:01.664Z,5.43
2019-05-09T06:16:22.769Z,3.97
2019-05-09T06:18:49.854Z,2.83
2019-05-09T06:21:17.724Z,3.53
2019-05-09T06:23:43.789Z,2.83
2019-05-09T06:26:10.724Z,6.43
2019-05-09T06:28:37.741Z,3.03
2019-05-09T06:31:04.755Z,3.77
2019-05-09T06:33:31.668Z,2.13
2019-05-09T06:35:59.075Z,4.60
2019-05-09T06:38:28.064Z,4.20
2019-05-09T06:40:52.744Z,3.40
2019-05-09T06:43:22.201Z,3.70
2019-05-09T06:45:54.755Z,3.40
2019-05-09T06:48:21.953Z,7.93
2019-05-09T06:50:49.027Z,11.13
2019-05-09T06:53:18.253Z,12.13
2019-05-09T06:55:44.721Z,10.63
2019-05-09T06:58:30.448Z,11.80
2019-05-09T07:01:18.294Z,13.00
2019-05-09T07:03:48.065Z,15.50
2019-05-09T07:06:37.915Z,13.50
2019-05-09T07:09:03.173Z,17.90
2019-05-09T07:11:30.101Z,15.73
2019-05-09T07:13:57.901Z,12.47
2019-05-09T07:16:27.698Z,13.17
2019-05-09T07:18:53.641Z,13.27
2019-05-09T07:21:20.683Z,14.47
2019-05-09T07:23:48.253Z,11.57
2019-05-09T07:26:17.484Z,16.97
2019-05-09T07:28:42.551Z,14.07
2019-05-09T07:31:24.447Z,15.03
2019-05-09T07:33:51.541Z,14.53
2019-05-09T07:36:19.005Z,13.73
2019-05-09T07:38:47.758Z,13.30
2019-05-09T07:41:13.253Z,14.23
2019-05-09T07:43:40.298Z,10.17
2019-05-09T07:46:09.128Z,8.17
2019-05-09T07:48:37.920Z,10.13
2019-05-09T07:51:08.054Z,10.33
2019-05-09T07:53:34.843Z,8.60
2019-05-09T07:56:01.891Z,10.60
2019-05-09T07:58:28.826Z,5.57
2019-05-09T08:00:59.252Z,3.83
2019-05-09T08:03:22.831Z,5.50
2019-05-09T08:05:49.880Z,4.80
2019-05-09T08:08:18.567Z,10.10
2019-05-09T08:10:43.893Z,7.67
2019-05-09T08:13:12.100Z,10.77
2019-05-09T08:15:38.451Z,13.43
2019-05-09T08:18:08.884Z,15.07
2019-05-09T08:20:40.137Z,17.43
2019-05-09T08:23:02.922Z,6.10
2019-05-09T08:25:29.863Z,8.60
2019-05-09T08:27:58.809Z,3.60
2019-05-09T08:30:23.930Z,3.47
2019-05-09T08:32:50.950Z,4.17
2019-05-09T08:35:19.638Z,4.43
2019-05-09T08:37:47.718Z,4.13
2019-05-09T08:40:13.777Z,3.60
2019-05-09T08:42:40.785Z,4.60
2019-05-09T08:45:17.335Z,4.10
2019-05-09T08:47:38.100Z,3.30
2019-05-09T08:50:09.408Z,3.10
2019-05-09T08:52:37.647Z,5.77
2019-05-09T08:55:05.556Z,3.60
2019-05-09T08:57:32.550Z,6.77
2019-05-09T08:59:59.769Z,4.00
2019-05-09T09:02:28.415Z,7.03
2019-05-09T09:04:57.973Z,3.33
2019-05-09T09:07:22.128Z,4.27
2019-05-09T09:09:49.889Z,3.50
2019-05-09T09:12:27.291Z,3.37
2019-05-09T09:14:43.836Z,5.07
2019-05-09T09:17:10.757Z,7.30
2019-05-09T09:19:38.548Z,6.17
2019-05-09T09:22:04.778Z,4.53
2019-05-09T09:24:33.540Z,4.17
2019-05-09T09:27:00.490Z,4.70
2019-05-09T09:29:28.342Z,3.03
2019-05-09T09:31:57.662Z,5.73
2019-05-09T09:34:26.944Z,3.83
2019-05-09T09:36:51.055Z,2.90
2019-05-09T09:39:18.572Z,3.00
2019-05-09T09:41:45.064Z,4.93
2019-05-09T09:44:11.980Z,3.47
2019-05-09T09:46:38.948Z,6.07
2019-05-09T09:49:07.915Z,2.80
2019-05-09T09:51:32.919Z,8.20
2019-05-09T09:53:59.834Z,2.90
2019-05-09T09:56:28.194Z,3.27
2019-05-09T09:58:57.786Z,3.17
2019-05-09T10:01:29.040Z,3.00
2019-05-09T10:03:58.099Z,7.13
2019-05-09T10:06:23.220Z,4.97
2019-05-09T10:08:50.142Z,3.83
2019-05-09T10:11:17.987Z,2.90
2019-05-09T10:13:44.261Z,3.87
2019-05-09T10:16:25.696Z,3.00
2019-05-09T10:18:39.481Z,2.50
2019-05-09T10:21:10.626Z,2.97
2019-05-09T10:23:37.967Z,2.70
2019-05-09T10:26:04.826Z,3.00
2019-05-09T10:28:31.882Z,3.13
2019-05-09T10:30:58.790Z,2.70
2019-05-09T10:33:27.915Z,2.70
2019-05-09T10:35:52.723Z,2.50
2019-05-09T10:38:20.580Z,2.60
2019-05-09T10:40:48.533Z,4.03
2019-05-09T10:43:33.161Z,2.87
2019-05-09T10:45:57.824Z,2.67
2019-05-09T10:48:24.318Z,2.23
2019-05-09T10:50:53.825Z,2.00
2019-05-09T10:53:18.286Z,1.87
2019-05-09T10:55:45.198Z,2.53
2019-05-09T10:58:13.205Z,2.03
2019-05-09T11:00:40.207Z,2.13
2019-05-09T11:03:08.755Z,2.80
2019-05-09T11:05:36.040Z,2.27
2019-05-09T11:08:03.007Z,1.87
2019-05-09T11:10:32.679Z,2.10
2019-05-09T11:12:58.635Z,1.80
2019-05-09T11:15:25.618Z,1.70
2019-05-09T11:17:52.717Z,2.40
2019-05-09T11:20:21.146Z,2.90
2019-05-09T11:22:48.141Z,2.20
2019-05-09T11:25:15.062Z,1.98
2019-05-09T11:27:42.440Z,1.90
2019-05-09T11:30:09.392Z,2.50
2019-05-09T11:32:38.450Z,1.98
2019-05-09T11:35:03.365Z,1.95
2019-05-09T11:37:30.434Z,1.90
2019-05-09T11:39:58.072Z,2.00
2019-05-09T11:42:24.631Z,1.90
2019-05-09T11:44:51.550Z,2.20
2019-05-09T11:47:32.318Z,1.70
2019-05-09T11:49:47.996Z,4.75
2019-05-09T11:52:12.871Z,2.10
2019-05-09T11:54:39.875Z,2.53
2019-05-09T11:57:07.679Z,2.10
2019-05-09T11:59:33.924Z,2.20
2019-05-09T12:02:00.887Z,2.62
2019-05-09T12:04:28.199Z,2.80
2019-05-09T12:06:57.744Z,2.62
2019-05-09T12:09:22.782Z,2.28
2019-05-09T12:11:49.781Z,2.40
2019-05-09T12:14:16.782Z,2.28
2019-05-09T12:16:43.828Z,2.90
2019-05-09T12:19:10.749Z,3.80
2019-05-09T12:21:44.975Z,1.95
2019-05-09T12:24:04.822Z,4.10
2019-05-09T12:26:33.565Z,2.30
2019-05-09T12:29:05.076Z,2.95
2019-05-09T12:31:32.171Z,2.75
2019-05-09T12:34:00.638Z,3.35
2019-05-09T12:36:28.623Z,3.28
2019-05-09T12:38:54.848Z,2.35
2019-05-09T12:41:22.356Z,2.17
2019-05-09T12:43:49.416Z,1.50
2019-05-09T12:46:16.508Z,2.37
2019-05-09T12:48:45.019Z,2.30
2019-05-09T12:51:12.027Z,2.03
2019-05-09T12:53:39.596Z,1.83
2019-05-09T12:56:08.179Z,1.62
2019-05-09T12:58:34.171Z,3.65
2019-05-09T13:03:33.418Z,1.90
2019-05-09T13:06:00.463Z,1.73
2019-05-09T13:08:27.949Z,1.75
2019-05-09T13:10:54.547Z,2.42
2019-05-09T13:13:21.533Z,1.87
2019-05-09T13:15:54.338Z,2.37
2019-05-09T13:18:25.162Z,2.05
2019-05-09T13:20:48.822Z,1.62
2019-05-09T13:23:17.742Z,1.67
2019-05-09T13:25:42.583Z,1.33
2019-05-09T13:28:25.548Z,1.50
2019-05-09T13:31:08.077Z,1.62
2019-05-09T13:33:51.458Z,1.55
2019-05-09T13:36:28.529Z,2.03
2019-05-09T13:39:01.278Z,2.17
2019-05-09T13:41:23.646Z,1.55
2019-05-09T13:43:57.629Z,1.70
2019-05-09T13:46:18.028Z,1.83
2019-05-09T13:49:06.010Z,1.80
2019-05-09T13:51:13.666Z,2.10
2019-05-09T13:53:40.751Z,1.65
2019-05-09T13:56:08.471Z,1.92
2019-05-09T13:58:34.764Z,2.03
2019-05-09T14:01:02.683Z,1.90
2019-05-09T14:03:28.822Z,1.80
2019-05-09T14:05:58.510Z,1.60
2019-05-09T14:08:27.977Z,1.85
2019-05-09T14:10:53.222Z,1.87
2019-05-09T14:13:23.382Z,1.92
2019-05-09T14:15:48.958Z,1.98
2019-05-09T14:18:18.524Z,1.90
2019-05-09T14:20:43.194Z,2.15
2019-05-09T14:23:11.654Z,1.70
2019-05-09T14:25:38.816Z,1.60
2019-05-09T14:28:08.324Z,1.58
2019-05-09T14:30:34.285Z,1.70
2019-05-09T14:33:02.744Z,1.08
2019-05-09T14:35:29.785Z,1.60
2019-05-09T14:37:59.016Z,1.50
2019-05-09T14:40:27.965Z,1.40
2019-05-09T14:42:52.900Z,1.70
2019-05-09T14:45:19.926Z,1.70
2019-05-09T14:47:48.362Z,1.65
2019-05-09T14:50:17.900Z,2.20
2019-05-09T14:52:42.475Z,2.40
2019-05-09T14:55:09.491Z,2.12
2019-05-09T14:57:38.392Z,1.90
2019-05-09T15:00:07.580Z,2.05
2019-05-09T15:02:32.447Z,1.83
2019-05-09T15:04:59.489Z,4.45
2019-05-09T15:07:28.408Z,1.67
2019-05-09T15:09:54.515Z,1.80
2019-05-09T15:12:20.742Z,1.90
2019-05-09T15:14:48.060Z,2.00
2019-05-09T15:17:14.791Z,3.75
2019-05-09T15:19:56.546Z,1.90
2019-05-09T15:24:50.428Z,2.05
2019-05-09T15:27:17.841Z,2.10
2019-05-09T15:29:44.405Z,1.90
2019-05-09T15:32:12.348Z,3.37
2019-05-09T15:34:38.501Z,2.37
2019-05-09T15:37:05.510Z,2.50
2019-05-09T15:39:32.607Z,1.98
2019-05-09T15:41:59.656Z,2.25
2019-05-09T15:44:26.711Z,2.50
2019-05-09T15:46:54.610Z,2.03
2019-05-09T15:49:21.573Z,2.37
2019-05-09T15:51:48.570Z,1.90
2019-05-09T15:54:17.859Z,2.40
2019-05-09T15:56:44.359Z,2.22
2019-05-09T15:59:10.287Z,1.92
2019-05-09T16:01:38.537Z,2.67
2019-05-09T16:04:04.384Z,2.15
2019-05-09T16:06:32.960Z,1.95
2019-05-09T16:08:58.858Z,2.45
2019-05-09T16:11:27.945Z,2.45
2019-05-09T16:13:53.522Z,1.90
2019-05-09T16:16:20.597Z,1.85
2019-05-09T16:18:48.682Z,2.30
2019-05-09T16:21:15.844Z,2.40
2019-05-09T16:23:43.282Z,2.40
2019-05-09T16:26:10.282Z,2.30
2019-05-09T16:28:38.011Z,2.25
2019-05-09T16:31:04.929Z,2.30
2019-05-09T16:33:32.496Z,2.00
2019-05-09T16:35:59.645Z,2.35
2019-05-09T16:38:41.239Z,2.47
2019-05-09T16:40:53.841Z,2.37
2019-05-09T16:43:20.792Z,2.33
2019-05-09T16:45:47.841Z,2.72
2019-05-09T16:48:14.885Z,2.72
2019-05-09T16:50:56.028Z,3.72
2019-05-09T16:53:09.810Z,3.10
2019-05-09T16:55:38.072Z,3.55
2019-05-09T16:58:03.488Z,2.45
2019-05-09T17:00:30.549Z,2.72
2019-05-09T17:02:57.584Z,3.15
2019-05-09T17:05:24.634Z,2.80
2019-05-09T17:07:52.439Z,3.72
2019-05-09T17:10:20.117Z,3.22
2019-05-09T17:12:47.850Z,2.92
2019-05-09T17:15:14.219Z,2.75
2019-05-09T17:17:41.158Z,3.05
2019-05-09T17:20:08.256Z,3.17
2019-05-09T17:22:41.141Z,3.87
2019-05-09T17:25:09.215Z,4.65
2019-05-09T17:27:38.549Z,4.32
2019-05-09T17:30:03.518Z,3.53
2019-05-09T17:32:30.570Z,3.33
2019-05-09T17:34:58.307Z,4.25
2019-05-09T17:37:24.769Z,4.03
2019-05-09T17:39:51.814Z,4.00
2019-05-09T17:42:18.874Z,3.50
2019-05-09T17:44:48.818Z,3.60
2019-05-09T17:47:14.706Z,5.30
2019-05-09T17:49:41.721Z,4.10
2019-05-09T17:52:10.851Z,5.25
2019-05-09T17:54:38.028Z,3.65
2019-05-09T17:57:05.099Z,3.50
2019-05-09T17:59:33.894Z,3.35
2019-05-09T18:02:00.954Z,4.57
2019-05-09T18:04:28.821Z,4.68
2019-05-09T18:06:58.452Z,6.25
2019-05-09T18:09:24.695Z,4.40
2019-05-09T18:11:52.719Z,4.43
2019-05-09T18:14:21.456Z,5.00
2019-05-09T18:16:48.508Z,4.12
2019-05-09T18:19:17.266Z,4.30
2019-05-09T18:21:50.741Z,6.60
2019-05-09T18:24:11.592Z,4.50
2019-05-09T18:26:40.119Z,5.30
2019-05-09T18:29:14.054Z,4.90
2019-05-09T18:31:58.391Z,4.78
2019-05-09T18:34:23.956Z,4.50
2019-05-09T18:36:52.233Z,4.22
2019-05-09T18:39:19.381Z,4.25
2019-05-09T18:41:48.239Z,4.20
2019-05-09T18:44:13.587Z,4.87
2019-05-09T18:46:40.630Z,4.00
2019-05-09T18:49:07.678Z,6.25
2019-05-09T18:51:34.731Z,7.95
2019-05-09T18:54:03.823Z,5.22
2019-05-09T18:56:30.821Z,6.50
2019-05-09T18:58:57.818Z,6.12
2019-05-09T19:01:24.873Z,5.62
2019-05-09T19:03:51.921Z,6.78
2019-05-09T19:06:18.975Z,5.35
2019-05-09T19:08:45.965Z,5.90
2019-05-09T19:11:13.171Z,4.62
2019-05-09T19:13:40.216Z,5.55
2019-05-09T19:16:09.315Z,5.28
2019-05-09T19:18:36.972Z,9.75
2019-05-09T19:21:05.044Z,4.93
2019-05-09T19:23:32.512Z,7.25
2019-05-09T19:26:00.480Z,15.40
2019-05-09T19:28:28.022Z,8.35
2019-05-09T19:30:57.248Z,7.82
2019-05-09T19:33:28.084Z,7.93
2019-05-09T19:35:55.556Z,5.45
2019-05-09T19:38:38.612Z,5.40
2019-05-09T19:41:06.830Z,6.28
2019-05-09T19:43:33.877Z,5.55
2019-05-09T19:46:00.934Z,5.97
2019-05-09T19:48:28.591Z,7.37
2019-05-09T19:50:55.613Z,8.65
2019-05-09T19:53:22.660Z,7.20
2019-05-09T19:55:51.450Z,5.97
2019-05-09T19:58:18.555Z,7.45
2019-05-09T20:00:45.782Z,7.15
2019-05-09T20:03:14.570Z,11.07
2019-05-09T20:05:41.618Z,8.23
2019-05-09T20:08:08.773Z,10.88
2019-05-09T20:10:42.370Z,11.55
2019-05-09T20:13:20.375Z,7.50
2019-05-09T20:15:47.556Z,10.80
2019-05-09T20:18:14.704Z,6.93
2019-05-09T20:20:41.807Z,6.97
2019-05-09T20:23:08.876Z,7.32
2019-05-09T20:25:35.933Z,8.43
2019-05-09T20:28:02.999Z,7.62
2019-05-09T20:30:30.023Z,7.95
2019-05-09T20:32:57.097Z,9.48
2019-05-09T20:35:24.160Z,9.75
2019-05-09T20:37:51.169Z,9.32
2019-05-09T20:40:18.223Z,8.52
2019-05-09T20:42:46.290Z,9.57
2019-05-09T20:45:13.340Z,8.15
2019-05-09T20:47:40.387Z,8.18
2019-05-09T20:50:07.443Z,8.27
2019-05-09T20:52:34.485Z,8.77
2019-05-09T20:55:01.546Z,10.40
2019-05-09T20:57:28.792Z,9.67
2019-05-09T20:59:55.839Z,9.87
2019-05-09T21:02:23.090Z,11.87
2019-05-09T21:04:50.139Z,11.67
2019-05-09T21:07:18.537Z,11.40
2019-05-09T21:09:45.641Z,11.33
2019-05-09T21:12:12.723Z,11.03
2019-05-09T21:14:39.807Z,10.83
2019-05-09T21:17:06.891Z,9.83
2019-05-09T21:19:33.967Z,10.90
2019-05-09T21:22:00.983Z,10.93
2019-05-09T21:24:28.061Z,11.53
2019-05-09T21:26:55.320Z,11.03
2019-05-09T21:29:22.471Z,10.93
2019-05-09T21:31:49.516Z,12.47
2019-05-09T21:34:16.534Z,12.77
2019-05-09T21:36:43.683Z,11.67
2019-05-09T21:39:10.769Z,11.63
2019-05-09T21:41:37.883Z,11.73
2019-05-09T21:44:04.963Z,13.47
2019-05-09T21:46:32.011Z,11.70
2019-05-09T21:48:59.067Z,10.60
2019-05-09T21:51:26.108Z,10.70
2019-05-09T21:53:53.157Z,11.50
2019-05-09T21:56:20.210Z,12.33
2019-05-09T21:58:47.255Z,13.20
2019-05-09T22:01:14.302Z,12.63
2019-05-09T22:03:41.358Z,13.03
2019-05-09T22:06:08.398Z,12.00
2019-05-09T22:08:35.450Z,15.13
2019-05-09T22:11:02.456Z,12.67
2019-05-09T22:13:29.551Z,12.13
2019-05-09T22:15:56.595Z,12.30
2019-05-09T22:18:23.652Z,13.10
2019-05-09T22:20:50.691Z,13.93
2019-05-09T22:23:17.696Z,13.43
2019-05-09T22:25:45.607Z,12.63
2019-05-09T22:28:12.663Z,13.50
2019-05-09T22:30:39.709Z,12.93
2019-05-09T22:33:06.762Z,13.47
2019-05-09T22:35:33.803Z,13.57
2019-05-09T22:38:00.856Z,13.50
2019-05-09T22:40:27.916Z,14.03
2019-05-09T22:42:54.947Z,16.43
2019-05-09T22:45:22.010Z,15.17
2019-05-09T22:47:49.044Z,15.43
2019-05-09T22:50:16.094Z,16.23
2019-05-09T22:52:43.149Z,18.10
2019-05-09T22:55:10.190Z,19.30
2019-05-09T22:57:37.238Z,16.77
2019-05-09T23:00:04.394Z,18.13
2019-05-09T23:02:31.447Z,16.00
2019-05-09T23:04:58.486Z,16.57
2019-05-09T23:07:25.439Z,16.63
2019-05-09T23:09:52.477Z,17.70
2019-05-09T23:12:19.530Z,16.23
2019-05-09T23:14:48.217Z,16.57
2019-05-09T23:17:15.579Z,16.03
2019-05-09T23:19:42.621Z,16.80
2019-05-09T23:22:09.772Z,17.40
2019-05-09T23:24:39.130Z,18.10
2019-05-09T23:27:06.226Z,18.00
2019-05-09T23:29:33.274Z,17.20
2019-05-09T23:32:15.579Z,17.70
2019-05-09T23:34:42.628Z,16.03
2019-05-09T23:37:09.626Z,19.70
2019-05-09T23:39:37.702Z,16.33
2019-05-09T23:42:06.027Z,18.20
2019-05-09T23:44:33.079Z,16.53
2019-05-09T23:47:00.230Z,15.53
2019-05-09T23:49:27.282Z,14.07
2019-05-09T23:51:54.329Z,16.47
2019-05-09T23:54:43.542Z,12.60
2019-05-09T23:57:00.409Z,14.73
2019-05-09T23:59:33.759Z,12.60
